createdAt,value
2018-12-25T00:00:28.592Z,26.13
2018-12-25T00:03:02.062Z,26.37
2018-12-25T00:05:33.945Z,26.00
2018-12-25T00:08:05.121Z,28.33
2018-12-25T00:10:35.734Z,24.53
2018-12-25T00:13:08.846Z,27.30
2018-12-25T00:15:40.754Z,27.87
2018-12-25T00:18:13.561Z,26.43
2018-12-25T00:20:44.844Z,24.87
2018-12-25T00:23:15.651Z,24.93
2018-12-25T00:25:46.571Z,24.43
2018-12-25T00:28:17.836Z,23.67
2018-12-25T00:30:49.028Z,24.93
2018-12-25T00:33:19.792Z,25.30
2018-12-25T00:35:52.664Z,22.53
2018-12-25T00:38:26.080Z,28.10
2018-12-25T00:40:56.913Z,23.13
2018-12-25T00:43:27.816Z,23.57
2018-12-25T00:45:59.280Z,23.13
2018-12-25T00:48:30.690Z,23.13
2018-12-25T00:51:03.086Z,25.60
2018-12-25T00:53:36.887Z,21.00
2018-12-25T00:56:10.243Z,25.37
2018-12-25T00:58:42.158Z,23.60
2018-12-25T01:01:12.775Z,25.10
2018-12-25T01:03:45.361Z,22.60
2018-12-25T01:06:17.560Z,25.50
2018-12-25T01:08:49.495Z,25.30
2018-12-25T01:11:21.078Z,24.33
2018-12-25T01:13:51.436Z,23.40
2018-12-25T01:16:29.109Z,20.93
2018-12-25T01:19:04.557Z,24.97
2018-12-25T01:21:38.728Z,23.20
2018-12-25T01:24:10.387Z,23.03
2018-12-25T01:26:41.636Z,24.07
2018-12-25T01:29:12.678Z,21.50
2018-12-25T01:31:43.104Z,24.73
2018-12-25T01:34:13.756Z,19.90
2018-12-25T01:36:46.483Z,20.87
2018-12-25T01:39:20.843Z,21.00
2018-12-25T01:41:51.886Z,21.00
2018-12-25T01:44:22.382Z,22.03
2018-12-25T01:46:52.826Z,20.30
2018-12-25T01:49:31.549Z,21.40
2018-12-25T01:51:56.467Z,21.90
2018-12-25T01:54:30.885Z,19.87
2018-12-25T01:57:05.471Z,18.63
2018-12-25T01:59:36.645Z,20.80
2018-12-25T02:02:08.751Z,21.10
2018-12-25T02:04:43.187Z,21.07
2018-12-25T02:07:17.029Z,17.93
2018-12-25T02:09:50.749Z,21.43
2018-12-25T02:12:22.798Z,21.37
2018-12-25T02:14:53.268Z,23.40
2018-12-25T02:17:24.471Z,19.30
2018-12-25T02:19:55.227Z,19.53
2018-12-25T02:22:25.862Z,22.77
2018-12-25T02:24:58.381Z,22.33
2018-12-25T02:27:29.684Z,21.33
2018-12-25T02:30:00.365Z,22.63
2018-12-25T02:32:35.173Z,19.83
2018-12-25T02:35:08.035Z,16.73
2018-12-25T02:37:43.098Z,18.80
2018-12-25T02:40:22.466Z,23.00
2018-12-25T02:43:06.154Z,18.30
2018-12-25T02:45:36.736Z,19.47
2018-12-25T02:48:08.015Z,19.33
2018-12-25T02:50:38.339Z,18.27
2018-12-25T02:53:09.072Z,20.67
2018-12-25T02:55:40.628Z,19.23
2018-12-25T02:58:13.103Z,19.90
2018-12-25T03:00:46.540Z,18.00
2018-12-25T03:03:19.689Z,17.47
2018-12-25T03:05:51.303Z,17.40
2018-12-25T03:08:24.452Z,17.47
2018-12-25T03:10:54.774Z,16.47
2018-12-25T03:13:28.680Z,17.20
2018-12-25T03:15:59.659Z,16.80
2018-12-25T03:18:31.149Z,17.03
2018-12-25T03:21:01.456Z,17.60
2018-12-25T03:23:32.270Z,16.30
2018-12-25T03:26:02.868Z,20.67
2018-12-25T03:28:35.554Z,17.17
2018-12-25T03:31:07.520Z,15.27
2018-12-25T03:33:38.765Z,15.83
2018-12-25T03:36:10.195Z,17.50
2018-12-25T03:38:41.193Z,15.07
2018-12-25T03:41:11.481Z,17.13
2018-12-25T03:43:46.740Z,19.73
2018-12-25T03:46:18.174Z,16.70
2018-12-25T03:48:49.566Z,16.43
2018-12-25T03:51:22.269Z,16.67
2018-12-25T03:53:52.959Z,16.63
2018-12-25T03:56:23.886Z,15.37
2018-12-25T03:58:56.466Z,15.60
2018-12-25T04:01:27.089Z,15.47
2018-12-25T04:04:01.022Z,19.13
2018-12-25T04:06:32.768Z,16.33
2018-12-25T04:09:04.723Z,19.73
2018-12-25T04:11:35.915Z,18.00
2018-12-25T04:14:08.036Z,15.43
2018-12-25T04:16:39.548Z,15.03
2018-12-25T04:19:10.927Z,15.20
2018-12-25T04:21:41.710Z,15.60
2018-12-25T04:24:12.490Z,14.53
2018-12-25T04:26:42.781Z,13.57
2018-12-25T04:29:14.764Z,12.97
2018-12-25T04:31:46.184Z,14.93
2018-12-25T04:34:16.505Z,13.77
2018-12-25T04:36:46.963Z,16.00
2018-12-25T04:39:18.691Z,13.07
2018-12-25T04:41:49.004Z,14.37
2018-12-25T04:44:20.656Z,13.10
2018-12-25T04:46:52.962Z,15.93
2018-12-25T04:49:24.126Z,13.90
2018-12-25T04:51:56.480Z,12.40
2018-12-25T04:54:29.129Z,12.20
2018-12-25T04:57:01.605Z,18.07
2018-12-25T04:59:35.253Z,15.97
2018-12-25T05:02:05.923Z,14.70
2018-12-25T05:04:36.306Z,14.87
2018-12-25T05:07:10.697Z,13.13
2018-12-25T05:09:41.122Z,13.07
2018-12-25T05:12:13.602Z,17.30
2018-12-25T05:14:46.793Z,13.30
2018-12-25T05:17:17.120Z,15.33
2018-12-25T05:19:48.778Z,14.43
2018-12-25T05:22:20.026Z,14.10
2018-12-25T05:24:50.961Z,16.63
2018-12-25T05:27:22.896Z,15.57
2018-12-25T05:29:55.727Z,16.90
2018-12-25T05:32:26.566Z,14.87
2018-12-25T05:34:58.261Z,17.30
2018-12-25T05:37:29.073Z,21.10
2018-12-25T05:40:00.605Z,17.60
2018-12-25T05:42:31.559Z,16.77
2018-12-25T05:45:02.731Z,18.27
2018-12-25T05:47:38.253Z,17.00
2018-12-25T05:50:10.731Z,16.00
2018-12-25T05:52:43.105Z,15.57
2018-12-25T05:55:13.842Z,20.10
2018-12-25T05:57:48.162Z,15.63
2018-12-25T06:00:19.717Z,14.70
2018-12-25T06:02:51.887Z,15.73
2018-12-25T06:05:22.724Z,15.87
2018-12-25T06:07:55.631Z,16.30
2018-12-25T06:10:27.350Z,15.60
2018-12-25T06:13:12.751Z,17.60
2018-12-25T06:15:46.651Z,16.47
2018-12-25T06:18:17.623Z,18.30
2018-12-25T06:20:55.063Z,17.83
2018-12-25T06:23:23.242Z,16.23
2018-12-25T06:25:55.132Z,16.13
2018-12-25T06:28:26.560Z,17.70
2018-12-25T06:30:59.168Z,18.60
2018-12-25T06:33:29.736Z,16.87
2018-12-25T06:36:00.916Z,18.27
2018-12-25T06:38:31.984Z,18.53
2018-12-25T06:41:02.720Z,17.13
2018-12-25T06:43:33.944Z,18.93
2018-12-25T06:46:05.319Z,19.13
2018-12-25T06:48:36.669Z,19.50
2018-12-25T06:51:08.958Z,18.70
2018-12-25T06:53:39.855Z,16.93
2018-12-25T06:56:11.261Z,15.63
2018-12-25T06:58:42.510Z,16.40
2018-12-25T07:01:14.256Z,19.77
2018-12-25T07:03:45.666Z,18.90
2018-12-25T07:06:16.005Z,18.27
2018-12-25T07:08:48.015Z,20.53
2018-12-25T07:11:19.829Z,17.43
2018-12-25T07:13:51.630Z,17.83
2018-12-25T07:16:23.862Z,16.83
2018-12-25T07:18:55.152Z,14.77
2018-12-25T07:21:25.845Z,18.10
2018-12-25T07:23:59.142Z,19.20
2018-12-25T07:26:29.551Z,17.03
2018-12-25T07:29:00.512Z,17.93
2018-12-25T07:31:31.451Z,22.97
2018-12-25T07:34:02.082Z,17.70
2018-12-25T07:36:33.025Z,21.20
2018-12-25T07:39:04.497Z,18.63
2018-12-25T07:41:37.794Z,17.77
2018-12-25T07:44:09.041Z,14.57
2018-12-25T07:46:41.314Z,14.90
2018-12-25T07:49:13.686Z,17.10
2018-12-25T07:51:48.479Z,17.57
2018-12-25T07:54:20.442Z,17.03
2018-12-25T07:56:55.010Z,16.60
2018-12-25T07:59:28.409Z,16.20
2018-12-25T08:02:00.432Z,13.00
2018-12-25T08:04:32.605Z,14.23
2018-12-25T08:07:06.205Z,14.10
2018-12-25T08:09:37.599Z,12.93
2018-12-25T08:12:09.144Z,15.37
2018-12-25T08:14:39.816Z,17.80
2018-12-25T08:17:12.864Z,14.87
2018-12-25T08:19:47.295Z,19.10
2018-12-25T08:22:19.322Z,18.67
2018-12-25T08:24:50.974Z,17.27
2018-12-25T08:27:26.459Z,17.90
2018-12-25T08:29:59.963Z,16.77
2018-12-25T08:32:31.753Z,18.57
2018-12-25T08:35:05.573Z,16.40
2018-12-25T08:37:48.791Z,18.23
2018-12-25T08:40:23.830Z,17.00
2018-12-25T08:42:57.379Z,18.93
2018-12-25T08:45:27.792Z,19.20
2018-12-25T08:47:59.262Z,19.27
2018-12-25T08:50:32.078Z,19.77
2018-12-25T08:53:04.316Z,19.77
2018-12-25T08:55:38.719Z,19.23
2018-12-25T08:58:12.092Z,21.13
2018-12-25T09:00:42.954Z,18.90
2018-12-25T09:03:32.713Z,19.83
2018-12-25T09:06:15.652Z,22.30
2018-12-25T09:08:49.017Z,21.57
2018-12-25T09:11:24.784Z,24.03
2018-12-25T09:13:57.310Z,24.77
2018-12-25T09:16:27.611Z,20.30
2018-12-25T09:18:59.042Z,19.90
2018-12-25T09:21:30.211Z,23.90
2018-12-25T09:24:04.292Z,25.33
2018-12-25T09:26:34.594Z,25.30
2018-12-25T09:29:04.995Z,26.53
2018-12-25T09:31:36.385Z,23.80
2018-12-25T09:34:12.852Z,24.33
2018-12-25T09:36:43.327Z,21.97
2018-12-25T09:39:15.081Z,22.57
2018-12-25T09:41:46.954Z,23.03
2018-12-25T09:44:17.853Z,24.90
2018-12-25T09:46:48.134Z,22.80
2018-12-25T09:49:18.443Z,24.00
2018-12-25T09:51:54.533Z,21.77
2018-12-25T09:54:24.271Z,22.67
2018-12-25T09:56:54.697Z,21.07
2018-12-25T09:59:26.975Z,25.33
2018-12-25T10:01:57.401Z,23.03
2018-12-25T10:04:28.919Z,21.50
2018-12-25T10:06:59.976Z,20.93
2018-12-25T10:09:31.059Z,22.03
2018-12-25T10:12:02.539Z,19.63
2018-12-25T10:14:34.311Z,23.97
2018-12-25T10:17:05.084Z,20.27
2018-12-25T10:19:39.741Z,20.63
2018-12-25T10:22:15.840Z,20.33
2018-12-25T10:24:46.572Z,20.63
2018-12-25T10:27:17.334Z,18.60
2018-12-25T10:29:48.048Z,19.73
2018-12-25T10:32:19.512Z,23.77
2018-12-25T10:34:51.850Z,26.37
2018-12-25T10:37:22.271Z,21.63
2018-12-25T10:39:53.052Z,25.23
2018-12-25T10:42:23.424Z,29.50
2018-12-25T10:44:54.053Z,27.97
2018-12-25T10:47:26.651Z,29.57
2018-12-25T10:50:00.296Z,32.70
2018-12-25T10:52:30.626Z,30.73
2018-12-25T10:55:02.657Z,31.77
2018-12-25T10:57:34.124Z,31.60
2018-12-25T11:00:06.399Z,27.77
2018-12-25T11:02:36.844Z,28.93
2018-12-25T11:05:09.290Z,30.07
2018-12-25T11:07:39.611Z,28.10
2018-12-25T11:10:10.140Z,28.00
2018-12-25T11:12:44.519Z,29.67
2018-12-25T11:15:16.337Z,27.97
2018-12-25T11:17:47.095Z,28.10
2018-12-25T11:20:19.140Z,27.23
2018-12-25T11:22:53.855Z,28.07
2018-12-25T11:25:28.088Z,27.37
2018-12-25T11:27:59.444Z,26.83
2018-12-25T11:30:32.321Z,29.70
2018-12-25T11:33:04.163Z,27.17
2018-12-25T11:35:35.756Z,27.83
2018-12-25T11:38:08.291Z,27.07
2018-12-25T11:40:42.297Z,25.53
2018-12-25T11:43:17.353Z,27.60
2018-12-25T11:45:48.011Z,24.70
2018-12-25T11:48:19.994Z,29.00
2018-12-25T11:50:51.031Z,29.03
2018-12-25T11:53:21.727Z,27.10
2018-12-25T11:55:54.731Z,28.33
2018-12-25T11:58:30.526Z,25.80
2018-12-25T12:01:01.166Z,25.77
2018-12-25T12:03:37.136Z,30.17
2018-12-25T12:06:17.278Z,26.40
2018-12-25T12:08:49.591Z,29.33
2018-12-25T12:11:20.138Z,27.53
2018-12-25T12:13:52.310Z,28.60
2018-12-25T12:16:25.897Z,30.63
2018-12-25T12:18:59.775Z,27.00
2018-12-25T12:21:33.220Z,28.80
2018-12-25T12:24:12.079Z,30.43
2018-12-25T12:26:49.237Z,30.57
2018-12-25T12:29:22.713Z,28.77
2018-12-25T12:31:55.826Z,26.87
2018-12-25T12:34:26.947Z,28.47
2018-12-25T12:37:00.492Z,28.97
2018-12-25T12:39:35.739Z,26.00
2018-12-25T12:42:08.188Z,27.33
2018-12-25T12:44:40.817Z,26.10
2018-12-25T12:47:16.082Z,29.07
2018-12-25T12:49:46.822Z,30.60
2018-12-25T12:52:18.405Z,26.90
2018-12-25T12:54:50.892Z,27.30
2018-12-25T12:57:22.344Z,30.00
2018-12-25T12:59:58.525Z,27.73
2018-12-25T13:02:36.720Z,27.23
2018-12-25T13:05:08.777Z,27.27
2018-12-25T13:07:39.194Z,27.87
2018-12-25T13:10:09.933Z,38.73
2018-12-25T13:12:40.286Z,27.37
2018-12-25T13:15:11.764Z,28.73
2018-12-25T13:17:45.415Z,26.00
2018-12-25T13:20:16.338Z,26.47
2018-12-25T13:22:53.876Z,30.53
2018-12-25T13:25:20.510Z,26.43
2018-12-25T13:27:53.054Z,25.13
2018-12-25T13:30:27.855Z,24.50
2018-12-25T13:32:59.479Z,24.93
2018-12-25T13:35:33.883Z,27.47
2018-12-25T13:38:19.010Z,24.73
2018-12-25T13:40:50.992Z,26.93
2018-12-25T13:43:25.218Z,28.47
2018-12-25T13:45:55.787Z,24.97
2018-12-25T13:48:28.549Z,23.53
2018-12-25T13:51:01.351Z,24.20
2018-12-25T13:53:35.570Z,24.63
2018-12-25T13:56:06.544Z,25.00
2018-12-25T13:58:38.859Z,26.77
2018-12-25T14:01:10.824Z,25.10
2018-12-25T14:03:48.068Z,25.03
2018-12-25T14:06:19.361Z,23.67
2018-12-25T14:08:52.795Z,21.43
2018-12-25T14:11:27.897Z,24.53
2018-12-25T14:14:01.312Z,22.10
2018-12-25T14:16:35.310Z,23.13
2018-12-25T14:19:10.494Z,23.20
2018-12-25T14:21:43.543Z,22.30
2018-12-25T14:24:16.675Z,20.80
2018-12-25T14:26:50.969Z,24.13
2018-12-25T14:29:23.756Z,19.93
2018-12-25T14:31:58.873Z,21.27
2018-12-25T14:34:31.540Z,21.00
2018-12-25T14:37:04.058Z,18.60
2018-12-25T14:39:35.232Z,19.97
2018-12-25T14:42:08.657Z,23.43
2018-12-25T14:44:40.357Z,21.40
2018-12-25T14:47:18.061Z,22.40
2018-12-25T14:49:52.021Z,23.60
2018-12-25T14:52:24.421Z,21.67
2018-12-25T14:54:58.076Z,25.20
2018-12-25T14:57:28.702Z,24.73
2018-12-25T15:00:04.690Z,21.27
2018-12-25T15:02:36.711Z,23.50
2018-12-25T15:05:09.998Z,23.13
2018-12-25T15:07:40.714Z,24.43
2018-12-25T15:10:12.519Z,30.00
2018-12-25T15:12:46.545Z,34.60
2018-12-25T15:15:17.426Z,31.90
2018-12-25T15:17:51.233Z,27.30
2018-12-25T15:20:31.197Z,27.30
2018-12-25T15:23:05.832Z,24.93
2018-12-25T15:25:38.374Z,25.33
2018-12-25T15:28:11.238Z,27.13
2018-12-25T15:30:44.790Z,32.03
2018-12-25T15:33:16.389Z,30.07
2018-12-25T15:35:49.201Z,31.47
2018-12-25T15:38:21.624Z,28.07
2018-12-25T15:40:55.092Z,32.20
2018-12-25T15:43:27.630Z,34.93
2018-12-25T15:46:11.470Z,36.97
2018-12-25T15:48:50.626Z,40.30
2018-12-25T15:51:23.101Z,39.77
2018-12-25T15:53:56.031Z,35.50
2018-12-25T15:56:26.452Z,32.03
2018-12-25T15:58:57.926Z,32.70
2018-12-25T16:01:31.622Z,34.67
2018-12-25T16:04:02.651Z,32.33
2018-12-25T16:06:38.716Z,36.43
2018-12-25T16:09:12.888Z,34.20
2018-12-25T16:11:45.164Z,28.93
2018-12-25T16:14:28.300Z,27.50
2018-12-25T16:17:01.463Z,36.83
2018-12-25T16:19:35.152Z,32.27
2018-12-25T16:22:06.686Z,37.73
2018-12-25T16:24:42.722Z,36.13
2018-12-25T16:27:15.088Z,29.47
2018-12-25T16:29:45.403Z,32.20
2018-12-25T16:32:20.665Z,31.83
2018-12-25T16:34:52.449Z,29.23
2018-12-25T16:37:23.902Z,30.50
2018-12-25T16:39:56.232Z,27.20
2018-12-25T16:42:27.005Z,26.87
2018-12-25T16:44:57.311Z,31.60
2018-12-25T16:47:27.689Z,32.40
2018-12-25T16:49:58.045Z,30.80
2018-12-25T16:52:28.916Z,32.73
2018-12-25T16:55:03.710Z,29.80
2018-12-25T16:57:35.727Z,32.57
2018-12-25T17:00:08.266Z,33.97
2018-12-25T17:02:44.019Z,31.13
2018-12-25T17:05:18.168Z,35.10
2018-12-25T17:07:52.505Z,31.10
2018-12-25T17:10:26.702Z,35.30
2018-12-25T17:12:58.289Z,34.83
2018-12-25T17:15:30.060Z,34.23
2018-12-25T17:18:03.718Z,34.23
2018-12-25T17:20:49.834Z,33.80
2018-12-25T17:23:21.226Z,31.63
2018-12-25T17:25:52.865Z,35.97
2018-12-25T17:28:27.922Z,34.30
2018-12-25T17:31:00.768Z,40.20
2018-12-25T17:33:33.753Z,39.97
2018-12-25T17:36:05.514Z,39.97
2018-12-25T17:38:39.426Z,33.50
2018-12-25T17:41:14.576Z,32.53
2018-12-25T17:43:53.884Z,33.43
2018-12-25T17:46:26.645Z,28.83
2018-12-25T17:49:00.556Z,29.30
2018-12-25T17:51:31.555Z,32.17
2018-12-25T17:54:10.488Z,33.53
2018-12-25T17:56:37.873Z,32.10
2018-12-25T17:59:08.185Z,34.63
2018-12-25T18:01:39.461Z,36.83
2018-12-25T18:04:14.408Z,31.93
2018-12-25T18:06:48.888Z,37.00
2018-12-25T18:09:22.842Z,43.87
2018-12-25T18:11:55.061Z,44.07
2018-12-25T18:14:26.261Z,35.90
2018-12-25T18:16:58.373Z,34.87
2018-12-25T18:19:42.771Z,39.20
2018-12-25T18:22:15.976Z,37.23
2018-12-25T18:24:47.226Z,41.47
2018-12-25T18:27:19.195Z,37.60
2018-12-25T18:29:51.757Z,44.83
2018-12-25T18:32:32.507Z,39.80
2018-12-25T18:35:03.463Z,38.87
2018-12-25T18:37:36.481Z,44.40
2018-12-25T18:40:09.242Z,40.13
2018-12-25T18:42:40.790Z,38.63
2018-12-25T18:45:11.643Z,39.10
2018-12-25T18:47:44.938Z,41.23
2018-12-25T18:50:17.331Z,41.37
2018-12-25T18:52:51.264Z,40.03
2018-12-25T18:55:21.656Z,38.80
2018-12-25T18:57:51.960Z,46.60
2018-12-25T19:00:24.846Z,44.33
2018-12-25T19:02:55.554Z,50.23
2018-12-25T19:05:26.233Z,50.23
2018-12-25T19:07:59.699Z,43.17
2018-12-25T19:10:30.872Z,46.63
2018-12-25T19:13:01.294Z,43.57
2018-12-25T19:15:35.798Z,35.40
2018-12-25T19:18:08.878Z,44.63
2018-12-25T19:20:41.263Z,43.27
2018-12-25T19:23:12.499Z,44.97
2018-12-25T19:25:45.535Z,41.27
2018-12-25T19:28:18.009Z,40.93
2018-12-25T19:30:50.353Z,41.90
2018-12-25T19:33:22.320Z,38.17
2018-12-25T19:35:57.859Z,38.77
2018-12-25T19:38:37.731Z,37.23
2018-12-25T19:41:10.251Z,39.20
2018-12-25T19:43:44.969Z,41.00
2018-12-25T19:46:20.982Z,38.63
2018-12-25T19:48:52.191Z,41.67
2018-12-25T19:51:26.869Z,44.17
2018-12-25T19:54:04.979Z,41.93
2018-12-25T19:56:52.220Z,44.33
2018-12-25T19:59:22.953Z,40.23
2018-12-25T20:01:58.022Z,38.87
2018-12-25T20:04:40.891Z,35.17
2018-12-25T20:07:54.245Z,38.00
2018-12-25T20:11:08.697Z,41.73
2018-12-25T20:14:33.216Z,35.73
2018-12-25T20:17:50.088Z,34.27
2018-12-25T20:21:14.090Z,34.30
2018-12-25T20:24:01.722Z,32.17
2018-12-25T20:27:29.711Z,31.50
2018-12-25T20:30:47.806Z,30.77
2018-12-25T20:33:41.832Z,31.03
2018-12-25T20:36:49.357Z,31.00
2018-12-25T20:40:08.398Z,30.10
2018-12-25T20:43:09.430Z,33.10
2018-12-25T20:46:12.339Z,33.57
2018-12-25T20:49:42.164Z,34.03
2018-12-25T20:52:59.262Z,39.90
2018-12-25T20:56:17.635Z,31.77
2018-12-25T20:59:37.907Z,39.47
2018-12-25T21:02:43.902Z,34.07
2018-12-25T21:05:55.719Z,34.70
2018-12-25T21:09:09.873Z,37.57
2018-12-25T21:12:26.127Z,34.83
2018-12-25T21:15:37.494Z,39.47
2018-12-25T21:19:02.169Z,43.10
2018-12-25T21:22:08.607Z,41.17
2018-12-25T21:25:17.782Z,37.97
2018-12-25T21:27:46.628Z,38.40
2018-12-25T21:30:18.758Z,40.17
2018-12-25T21:32:49.456Z,36.40
2018-12-25T21:35:26.615Z,40.13
2018-12-25T21:38:00.467Z,38.80
2018-12-25T21:40:32.502Z,42.07
2018-12-25T21:43:04.111Z,38.80
2018-12-25T21:45:37.458Z,40.93
2018-12-25T21:48:09.299Z,37.10
2018-12-25T21:50:40.714Z,43.50
2018-12-25T21:53:26.453Z,37.37
2018-12-25T21:56:00.633Z,39.37
2018-12-25T21:58:35.438Z,39.07
2018-12-25T22:01:07.319Z,37.03
2018-12-25T22:03:39.043Z,38.83
2018-12-25T22:06:10.511Z,35.67
2018-12-25T22:08:45.517Z,39.60
2018-12-25T22:11:17.726Z,35.47
2018-12-25T22:13:51.576Z,35.83
2018-12-25T22:16:24.121Z,36.70
2018-12-25T22:18:58.308Z,32.77
2018-12-25T22:21:30.408Z,32.57
2018-12-25T22:24:04.060Z,31.57
2018-12-25T22:26:42.208Z,32.10
2018-12-25T22:29:14.190Z,32.83
2018-12-25T22:31:44.509Z,32.67
2018-12-25T22:34:15.524Z,32.90
2018-12-25T22:36:46.764Z,38.20
2018-12-25T22:39:18.999Z,32.67
2018-12-25T22:41:50.793Z,39.63
2018-12-25T22:44:22.925Z,38.00
2018-12-25T22:46:54.214Z,38.13
2018-12-25T22:49:26.512Z,36.20
2018-12-25T22:52:00.820Z,37.80
2018-12-25T22:54:33.498Z,34.43
2018-12-25T22:57:05.235Z,37.30
2018-12-25T22:59:37.756Z,33.13
2018-12-25T23:02:09.805Z,34.23
2018-12-25T23:04:43.655Z,34.73
2018-12-25T23:07:16.184Z,32.93
2018-12-25T23:09:50.251Z,32.87
2018-12-25T23:12:21.106Z,31.73
2018-12-25T23:14:52.252Z,30.67
2018-12-25T23:17:22.580Z,33.97
2018-12-25T23:19:55.895Z,34.17
2018-12-25T23:22:41.311Z,36.07
2018-12-25T23:25:14.881Z,36.97
2018-12-25T23:27:50.620Z,32.83
2018-12-25T23:30:21.037Z,34.53
2018-12-25T23:32:52.246Z,33.57
2018-12-25T23:35:23.594Z,32.60
2018-12-25T23:37:55.879Z,34.33
2018-12-25T23:40:30.355Z,34.30
2018-12-25T23:43:08.262Z,38.67
2018-12-25T23:45:41.732Z,34.50
2018-12-25T23:48:14.635Z,36.73
2018-12-25T23:50:50.267Z,36.80
2018-12-25T23:53:22.418Z,35.30
2018-12-25T23:55:57.215Z,35.57
2018-12-25T23:58:27.880Z,34.67
